Leuchars, United Kingdom
Current Conditions -  °F | °C
As of 11:50 PM on Friday 28 Nov 2014 (Local Time) from EGQL Reporting Station
Haze Haze  
Wind Chill: 10°   Ceiling: 500
Heat Index: 10°   Visibility: 2.5mi
Dew Point:   Wind: 12mph
Humidity: 94%   Direction: 120°ESE
Pressure: 29.88"   Gusts: NA
Location:  56.38°N, 2.89°W
Report Text: EGQL 282350Z 12010KT 4000 BR OVC005 10/09 Q1012 YLO1
Loading
Personal Weather Stations






























Interactive Weather Map New forecast layout! Learn more

10-Day Weather Forecast

Advertisements
Track Severe Weather on mobile